Time;durP1;ratioP1;P1;durP2;ratioP2;P2;SDS_P1;SDS_P2;PMS_P1;PMS_P2;Temp;Humidity;BMP_temperature;BMP_pressure;BME280_temperature;BME280_humidity;BME280_pressure;Samples;Min_cycle;Max_cycle;Signal;HPM_P1;HPM_P2
2023/09/13 00:01:12;;;;;;;2.75;1.00;;;;;;;;;;5038583;28;20059;-67
2023/09/13 00:03:38;;;;;;;1.85;0.82;;;;;;;;;;5036872;28;20017;-68
2023/09/13 00:06:05;;;;;;;2.03;0.80;;;;;;;;;;5038372;28;20033;-67
2023/09/13 00:08:31;;;;;;;2.85;0.80;;;;;;;;;;5037893;28;20024;-68
2023/09/13 00:11:06;;;;;;;2.15;0.93;;;;;;;;;;5037259;28;20029;-67
2023/09/13 00:13:33;;;;;;;2.78;0.90;;;;;;;;;;5037687;28;20025;-67
2023/09/13 00:15:59;;;;;;;1.90;0.80;;;;;;;;;;5038076;28;20036;-68
2023/09/13 00:18:25;;;;;;;2.65;1.00;;;;;;;;;;5038937;28;20076;-67
2023/09/13 00:20:54;;;;;;;2.25;0.88;;;;;;;;;;5038191;28;20029;-67
2023/09/13 00:23:20;;;;;;;2.42;0.93;;;;;;;;;;5037518;28;20101;-67
2023/09/13 00:25:47;;;;;;;2.30;0.70;;;;;;;;;;5040003;28;20030;-67
2023/09/13 00:28:12;;;;;;;3.00;0.80;;;;;;;;;;5041393;28;20021;-67
2023/09/13 00:30:39;;;;;;;2.80;1.00;;;;;;;;;;5036643;28;20028;-67
2023/09/13 00:33:05;;;;;;;2.33;0.80;;;;;;;;;;5037911;28;20063;-67
2023/09/13 00:35:31;;;;;;;1.52;0.90;;;;;;;;;;5038499;28;20025;-68
2023/09/13 00:37:57;;;;;;;2.95;1.00;;;;;;;;;;5037719;28;20036;-67
2023/09/13 00:40:23;;;;;;;2.58;0.88;;;;;;;;;;5036546;28;20025;-67
2023/09/13 00:42:49;;;;;;;2.00;0.70;;;;;;;;;;5037686;28;20049;-67
2023/09/13 00:45:15;;;;;;;2.47;1.08;;;;;;;;;;5037233;28;20018;-67
2023/09/13 00:47:44;;;;;;;1.90;0.70;;;;;;;;;;5037616;28;20036;-67
2023/09/13 00:50:12;;;;;;;1.98;0.88;;;;;;;;;;5036904;28;20037;-67
2023/09/13 00:52:39;;;;;;;3.20;0.85;;;;;;;;;;5037856;28;20096;-67
2023/09/13 00:55:06;;;;;;;3.15;1.00;;;;;;;;;;5036603;28;20080;-67
2023/09/13 00:57:33;;;;;;;2.60;0.60;;;;;;;;;;5037005;28;20046;-67
2023/09/13 01:00:00;;;;;;;1.80;0.82;;;;;;;;;;5037843;28;20022;-67
2023/09/13 01:02:26;;;;;;;4.13;0.90;;;;;;;;;;5037248;28;20017;-67
2023/09/13 01:04:52;;;;;;;1.55;0.88;;;;;;;;;;5036964;28;20053;-67
2023/09/13 01:07:18;;;;;;;2.63;0.80;;;;;;;;;;5037195;28;20513;-67
2023/09/13 01:09:44;;;;;;;1.65;0.70;;;;;;;;;;5036517;28;20529;-67
2023/09/13 01:12:09;;;;;;;1.35;0.65;;;;;;;;;;5037040;28;20060;-67
2023/09/13 01:14:35;;;;;;;2.05;0.90;;;;;;;;;;5037882;28;20056;-67
2023/09/13 01:17:06;;;;;;;3.42;0.80;;;;;;;;;;5036992;28;20513;-68
2023/09/13 01:19:51;;;;;;;2.25;0.80;;;;;;;;;;5037197;28;20030;-68
2023/09/13 01:22:26;;;;;;;2.35;0.80;;;;;;;;;;5037056;28;20367;-68
2023/09/13 01:25:07;;;;;;;1.67;0.90;;;;;;;;;;5036389;28;20032;-68
2023/09/13 01:27:53;;;;;;;2.17;1.00;;;;;;;;;;5041985;28;20021;-68
2023/09/13 01:30:20;;;;;;;2.95;0.77;;;;;;;;;;5037050;28;20120;-68
2023/09/13 01:32:51;;;;;;;2.85;0.70;;;;;;;;;;5036855;28;20030;-67
2023/09/13 01:35:17;;;;;;;1.85;0.52;;;;;;;;;;5037354;28;20029;-68
2023/09/13 01:37:43;;;;;;;3.08;1.08;;;;;;;;;;5035590;28;20037;-68
2023/09/13 01:40:09;;;;;;;2.45;0.60;;;;;;;;;;5035866;28;20030;-68
2023/09/13 01:42:38;;;;;;;3.13;0.98;;;;;;;;;;5036709;28;20018;-68
2023/09/13 01:45:08;;;;;;;1.42;0.60;;;;;;;;;;5036097;28;20406;-68
2023/09/13 01:47:34;;;;;;;3.47;1.00;;;;;;;;;;5035470;28;20026;-68
2023/09/13 01:50:00;;;;;;;2.15;0.82;;;;;;;;;;5036237;28;20580;-67
2023/09/13 01:52:27;;;;;;;2.78;0.88;;;;;;;;;;5037716;28;20056;-67
2023/09/13 01:54:52;;;;;;;1.63;0.75;;;;;;;;;;5037505;28;20033;-68
2023/09/13 01:57:18;;;;;;;2.17;0.90;;;;;;;;;;5036117;28;20061;-67
2023/09/13 01:59:44;;;;;;;2.17;0.80;;;;;;;;;;5036699;28;20037;-67
2023/09/13 02:02:11;;;;;;;2.70;0.57;;;;;;;;;;5035499;28;20052;-67
2023/09/13 02:04:37;;;;;;;3.30;0.80;;;;;;;;;;5035098;28;20089;-67
2023/09/13 02:07:03;;;;;;;1.83;0.70;;;;;;;;;;5036566;28;20473;-67
2023/09/13 02:09:29;;;;;;;3.38;0.90;;;;;;;;;;5036254;28;20486;-66
2023/09/13 02:11:55;;;;;;;3.55;0.80;;;;;;;;;;5036192;28;20030;-67
2023/09/13 02:14:21;;;;;;;1.95;0.90;;;;;;;;;;5037061;28;20036;-67
2023/09/13 02:16:47;;;;;;;2.00;0.85;;;;;;;;;;5036874;28;20475;-67
2023/09/13 02:19:13;;;;;;;1.80;0.60;;;;;;;;;;5037100;28;20063;-68
2023/09/13 02:21:40;;;;;;;2.33;0.70;;;;;;;;;;5037074;28;20056;-68
2023/09/13 02:24:06;;;;;;;2.25;1.00;;;;;;;;;;5036321;28;20026;-68
2023/09/13 02:26:32;;;;;;;2.67;0.80;;;;;;;;;;5043931;28;20401;-68
2023/09/13 02:28:58;;;;;;;1.52;0.60;;;;;;;;;;5037171;28;20029;-68
2023/09/13 02:31:29;;;;;;;3.63;0.70;;;;;;;;;;5037096;28;20029;-68
2023/09/13 02:33:55;;;;;;;2.83;0.80;;;;;;;;;;5036891;28;20025;-66
2023/09/13 02:36:22;;;;;;;2.40;0.60;;;;;;;;;;5036782;28;20025;-67
2023/09/13 02:38:49;;;;;;;3.10;0.75;;;;;;;;;;5035681;28;20022;-68
2023/09/13 02:41:16;;;;;;;2.47;0.75;;;;;;;;;;5036352;28;20020;-68
2023/09/13 02:43:42;;;;;;;2.08;0.60;;;;;;;;;;5036841;28;20060;-68
2023/09/13 02:46:08;;;;;;;1.77;0.73;;;;;;;;;;5035323;28;20021;-68
2023/09/13 02:48:34;;;;;;;2.15;0.60;;;;;;;;;;5036853;28;20113;-67
2023/09/13 02:51:00;;;;;;;1.35;0.63;;;;;;;;;;5036652;28;20047;-67
2023/09/13 02:53:26;;;;;;;1.40;0.52;;;;;;;;;;5038471;28;20084;-67
2023/09/13 02:55:52;;;;;;;2.65;0.70;;;;;;;;;;5034753;28;20042;-67
2023/09/13 02:58:18;;;;;;;2.17;0.65;;;;;;;;;;5036632;28;20040;-67
2023/09/13 03:00:44;;;;;;;2.63;0.70;;;;;;;;;;5036591;28;20079;-67
2023/09/13 03:03:10;;;;;;;2.53;0.80;;;;;;;;;;5036795;28;20056;-67
2023/09/13 03:05:36;;;;;;;2.72;0.60;;;;;;;;;;5039928;28;20025;-67
2023/09/13 03:08:03;;;;;;;2.33;0.75;;;;;;;;;;5040240;28;20029;-67
2023/09/13 03:10:29;;;;;;;3.45;0.70;;;;;;;;;;5039486;28;20025;-68
2023/09/13 03:12:55;;;;;;;4.13;0.85;;;;;;;;;;5040201;28;20022;-68
2023/09/13 03:15:21;;;;;;;2.95;0.82;;;;;;;;;;5039995;28;20028;-68
2023/09/13 03:17:47;;;;;;;2.97;0.70;;;;;;;;;;5040002;28;20040;-67
2023/09/13 03:20:13;;;;;;;2.17;1.00;;;;;;;;;;5039845;28;20026;-67
2023/09/13 03:22:39;;;;;;;4.38;0.95;;;;;;;;;;5040073;28;20061;-67
2023/09/13 03:25:06;;;;;;;2.30;0.73;;;;;;;;;;5038298;28;20041;-67
2023/09/13 03:27:32;;;;;;;2.22;0.70;;;;;;;;;;5048333;28;20029;-67
2023/09/13 03:30:02;;;;;;;1.40;0.70;;;;;;;;;;5039517;28;20456;-67
2023/09/13 03:32:29;;;;;;;2.83;1.10;;;;;;;;;;5038259;28;20537;-67
2023/09/13 03:34:55;;;;;;;1.55;0.60;;;;;;;;;;5039722;28;20024;-67
2023/09/13 03:37:21;;;;;;;3.45;0.88;;;;;;;;;;5039553;28;20030;-67
2023/09/13 03:39:47;;;;;;;2.30;0.73;;;;;;;;;;5039362;28;20026;-67
2023/09/13 03:42:13;;;;;;;1.60;0.77;;;;;;;;;;5039255;28;20029;-67
2023/09/13 03:44:39;;;;;;;2.40;0.73;;;;;;;;;;5039582;28;20104;-68
2023/09/13 03:47:05;;;;;;;1.33;0.63;;;;;;;;;;5039479;28;20394;-67
2023/09/13 03:49:31;;;;;;;2.50;0.80;;;;;;;;;;5039258;28;20024;-67
2023/09/13 03:51:57;;;;;;;3.92;0.73;;;;;;;;;;5039410;28;20029;-68
2023/09/13 03:54:23;;;;;;;3.05;0.80;;;;;;;;;;5040810;28;20021;-68
2023/09/13 03:56:49;;;;;;;4.72;0.88;;;;;;;;;;5038746;28;20391;-67
2023/09/13 03:59:15;;;;;;;2.38;0.65;;;;;;;;;;5037321;28;20017;-67
2023/09/13 04:01:41;;;;;;;3.60;0.90;;;;;;;;;;5039446;28;20127;-67
2023/09/13 04:04:08;;;;;;;3.63;0.80;;;;;;;;;;5038778;28;20029;-67
2023/09/13 04:06:34;;;;;;;3.13;0.60;;;;;;;;;;5039259;28;20033;-67
2023/09/13 04:09:00;;;;;;;2.13;0.52;;;;;;;;;;5037632;28;20044;-67
2023/09/13 04:11:28;;;;;;;1.27;0.70;;;;;;;;;;5038776;28;20433;-67
2023/09/13 04:13:54;;;;;;;3.97;1.00;;;;;;;;;;5038737;28;20029;-67
2023/09/13 04:16:20;;;;;;;2.90;0.60;;;;;;;;;;5039323;28;20387;-67
2023/09/13 04:18:46;;;;;;;1.83;0.57;;;;;;;;;;5038684;28;20368;-67
2023/09/13 04:21:12;;;;;;;2.65;0.70;;;;;;;;;;5039098;28;20021;-67
2023/09/13 04:23:38;;;;;;;2.42;0.82;;;;;;;;;;5038578;28;20060;-67
2023/09/13 04:26:04;;;;;;;1.63;0.70;;;;;;;;;;5043154;28;20106;-67
2023/09/13 04:28:32;;;;;;;2.33;0.80;;;;;;;;;;5042627;28;20080;-67
2023/09/13 04:30:59;;;;;;;2.88;0.95;;;;;;;;;;5038722;28;20018;-68
2023/09/13 04:33:43;;;;;;;3.72;0.73;;;;;;;;;;5038405;28;20113;-68
2023/09/13 04:36:09;;;;;;;2.15;0.70;;;;;;;;;;5038585;28;20045;-68
2023/09/13 04:38:35;;;;;;;1.75;0.70;;;;;;;;;;5038236;28;20022;-68
2023/09/13 04:41:03;;;;;;;3.42;0.90;;;;;;;;;;5038070;28;20025;-68
2023/09/13 04:43:29;;;;;;;1.95;0.65;;;;;;;;;;5038307;28;20021;-67
2023/09/13 04:45:55;;;;;;;1.80;0.73;;;;;;;;;;5038339;28;20033;-68
2023/09/13 04:48:21;;;;;;;3.80;0.70;;;;;;;;;;5038091;28;20493;-67
2023/09/13 04:50:47;;;;;;;2.20;0.98;;;;;;;;;;5038311;28;20032;-68
2023/09/13 04:53:13;;;;;;;2.28;0.77;;;;;;;;;;5038332;28;20025;-67
2023/09/13 04:55:40;;;;;;;2.63;0.80;;;;;;;;;;5036418;28;20032;-68
2023/09/13 04:58:06;;;;;;;3.25;0.80;;;;;;;;;;5037907;28;20029;-67
2023/09/13 05:00:32;;;;;;;1.58;0.77;;;;;;;;;;5037962;28;20467;-68
2023/09/13 05:02:58;;;;;;;4.40;0.82;;;;;;;;;;5036661;28;20036;-68
2023/09/13 05:05:24;;;;;;;2.63;0.65;;;;;;;;;;5036589;28;20124;-67
2023/09/13 05:07:50;;;;;;;2.15;0.80;;;;;;;;;;5038068;28;20026;-67
2023/09/13 05:10:16;;;;;;;5.85;0.80;;;;;;;;;;5036310;28;20063;-67
2023/09/13 05:12:42;;;;;;;3.00;0.80;;;;;;;;;;5037924;28;20022;-67
2023/09/13 05:15:09;;;;;;;3.05;0.85;;;;;;;;;;5037612;28;20025;-67
2023/09/13 05:17:35;;;;;;;3.92;0.98;;;;;;;;;;5036421;28;20032;-67
2023/09/13 05:20:01;;;;;;;4.13;0.65;;;;;;;;;;5037542;28;20043;-67
2023/09/13 05:22:26;;;;;;;2.75;0.60;;;;;;;;;;5037466;28;20057;-67
2023/09/13 05:24:52;;;;;;;4.20;1.05;;;;;;;;;;5037523;28;20040;-67
2023/09/13 05:27:18;;;;;;;3.38;0.90;;;;;;;;;;5045414;28;20433;-67
2023/09/13 05:29:45;;;;;;;3.92;0.75;;;;;;;;;;5037245;28;20433;-67
2023/09/13 05:32:11;;;;;;;2.97;0.73;;;;;;;;;;5037510;28;20509;-67
2023/09/13 05:34:37;;;;;;;4.32;0.98;;;;;;;;;;5037470;28;20021;-67
2023/09/13 05:37:03;;;;;;;2.28;0.73;;;;;;;;;;5037308;28;20504;-67
2023/09/13 05:39:29;;;;;;;2.05;0.70;;;;;;;;;;5037002;28;20389;-67
2023/09/13 05:41:55;;;;;;;6.55;1.02;;;;;;;;;;5036869;28;20108;-67
2023/09/13 05:44:24;;;;;;;2.63;0.80;;;;;;;;;;5037118;28;20067;-67
2023/09/13 05:46:52;;;;;;;1.75;0.60;;;;;;;;;;5037214;28;20022;-67
2023/09/13 05:49:18;;;;;;;2.15;0.73;;;;;;;;;;5036332;28;20104;-67
2023/09/13 05:51:45;;;;;;;3.90;0.90;;;;;;;;;;5037319;28;20042;-67
2023/09/13 05:54:11;;;;;;;2.67;0.60;;;;;;;;;;5038721;28;20048;-67
2023/09/13 05:56:37;;;;;;;4.80;1.08;;;;;;;;;;5036550;28;20049;-67
2023/09/13 05:59:03;;;;;;;3.33;0.98;;;;;;;;;;5050461;28;20025;-67
2023/09/13 06:01:30;;;;;;;3.05;0.88;;;;;;;;;;5056460;28;20029;-68
2023/09/13 06:03:56;;;;;;;5.28;1.10;;;;;;;;;;5053234;28;20017;-69
2023/09/13 06:06:22;;;;;;;2.92;1.00;;;;;;;;;;5041580;28;20400;-69
2023/09/13 06:08:48;;;;;;;7.57;1.08;;;;;;;;;;5056297;28;20021;-69
2023/09/13 06:11:16;;;;;;;4.22;1.00;;;;;;;;;;5055272;28;20040;-69
2023/09/13 06:13:42;;;;;;;3.50;0.88;;;;;;;;;;5056297;28;20028;-68
2023/09/13 06:16:08;;;;;;;5.78;1.27;;;;;;;;;;5054168;28;20029;-68
2023/09/13 06:18:34;;;;;;;2.30;1.20;;;;;;;;;;5056665;28;20049;-68
2023/09/13 06:21:00;;;;;;;1.98;1.00;;;;;;;;;;5056860;28;20075;-67
2023/09/13 06:23:34;;;;;;;4.78;1.33;;;;;;;;;;5056742;28;20104;-67
2023/09/13 06:26:00;;;;;;;3.03;1.10;;;;;;;;;;5054848;28;20380;-67
2023/09/13 06:28:26;;;;;;;3.58;1.00;;;;;;;;;;5040545;28;20109;-67
2023/09/13 06:30:52;;;;;;;4.10;1.10;;;;;;;;;;5036374;28;20076;-67
2023/09/13 06:33:18;;;;;;;2.60;0.98;;;;;;;;;;5036069;28;20030;-68
2023/09/13 06:35:44;;;;;;;4.85;1.10;;;;;;;;;;5036234;28;20072;-68
2023/09/13 06:38:11;;;;;;;4.65;0.98;;;;;;;;;;5036180;28;20029;-69
2023/09/13 06:40:39;;;;;;;2.75;1.08;;;;;;;;;;5039864;28;20064;-68
2023/09/13 06:43:05;;;;;;;4.07;1.20;;;;;;;;;;5040331;28;20025;-65
2023/09/13 06:45:31;;;;;;;3.10;0.98;;;;;;;;;;5038892;28;20080;-65
2023/09/13 06:47:57;;;;;;;4.82;1.20;;;;;;;;;;5040092;28;20025;-66
2023/09/13 06:50:23;;;;;;;4.07;0.80;;;;;;;;;;5040426;28;20101;-64
2023/09/13 06:52:49;;;;;;;2.30;1.08;;;;;;;;;;5040586;28;20021;-65
2023/09/13 06:55:16;;;;;;;5.60;1.00;;;;;;;;;;5038652;28;20034;-66
2023/09/13 06:57:42;;;;;;;5.82;1.02;;;;;;;;;;5038831;28;20064;-71
2023/09/13 07:00:08;;;;;;;3.78;0.90;;;;;;;;;;5038531;28;20014;-69
2023/09/13 07:02:34;;;;;;;3.35;1.08;;;;;;;;;;5039512;28;20018;-70
2023/09/13 07:05:00;;;;;;;4.18;1.00;;;;;;;;;;5040246;28;20025;-76
2023/09/13 07:07:26;;;;;;;4.13;1.02;;;;;;;;;;5039156;28;20030;-76
2023/09/13 07:09:52;;;;;;;3.00;0.90;;;;;;;;;;5039720;28;20485;-72
2023/09/13 07:12:19;;;;;;;3.40;0.90;;;;;;;;;;5039482;28;20401;-73
2023/09/13 07:14:45;;;;;;;4.63;1.10;;;;;;;;;;5040025;28;20482;-72
2023/09/13 07:17:11;;;;;;;4.03;0.95;;;;;;;;;;5039563;28;20044;-72
2023/09/13 07:19:37;;;;;;;2.00;0.95;;;;;;;;;;5039859;28;20510;-70
2023/09/13 07:22:03;;;;;;;4.18;1.23;;;;;;;;;;5039640;28;20563;-67
2023/09/13 07:24:29;;;;;;;2.53;0.90;;;;;;;;;;5039844;28;20459;-67
2023/09/13 07:26:55;;;;;;;5.28;1.33;;;;;;;;;;5037947;28;20029;-67
2023/09/13 07:29:21;;;;;;;3.08;1.15;;;;;;;;;;5034444;28;20029;-67
2023/09/13 07:31:47;;;;;;;4.50;1.30;;;;;;;;;;5037677;28;20033;-67
2023/09/13 07:34:15;;;;;;;2.97;1.10;;;;;;;;;;5039406;28;20033;-68
2023/09/13 07:36:41;;;;;;;3.35;1.40;;;;;;;;;;5033460;28;20021;-68
2023/09/13 07:39:09;;;;;;;3.00;1.20;;;;;;;;;;5039197;28;20087;-67
2023/09/13 07:41:35;;;;;;;3.78;1.02;;;;;;;;;;5038280;28;20571;-67
2023/09/13 07:44:01;;;;;;;6.75;1.20;;;;;;;;;;5039417;28;20029;-67
2023/09/13 07:46:27;;;;;;;5.82;1.10;;;;;;;;;;5037641;28;20040;-68
2023/09/13 07:48:53;;;;;;;4.97;1.40;;;;;;;;;;5037614;28;20593;-68
2023/09/13 07:51:19;;;;;;;3.58;1.10;;;;;;;;;;5035837;28;20053;-68
2023/09/13 07:53:45;;;;;;;3.63;1.48;;;;;;;;;;5037958;28;20387;-67
2023/09/13 07:56:11;;;;;;;5.00;1.20;;;;;;;;;;5036168;28;20049;-67
2023/09/13 07:58:37;;;;;;;3.63;1.00;;;;;;;;;;5037818;28;20127;-67
2023/09/13 08:01:03;;;;;;;3.47;1.25;;;;;;;;;;5035151;28;20036;-67
2023/09/13 08:03:29;;;;;;;2.20;1.00;;;;;;;;;;5037268;28;20092;-68
2023/09/13 08:05:57;;;;;;;4.07;1.25;;;;;;;;;;5037899;28;20029;-67
2023/09/13 08:08:23;;;;;;;4.38;1.20;;;;;;;;;;5038758;28;20060;-67
2023/09/13 08:10:49;;;;;;;7.07;1.40;;;;;;;;;;5036626;28;20040;-68
2023/09/13 08:13:16;;;;;;;3.25;1.15;;;;;;;;;;5037873;28;20025;-68
2023/09/13 08:15:42;;;;;;;4.22;1.02;;;;;;;;;;5036602;28;20034;-68
2023/09/13 08:18:08;;;;;;;4.25;1.60;;;;;;;;;;5034458;28;20451;-67
2023/09/13 08:20:35;;;;;;;2.85;1.02;;;;;;;;;;5036542;28;20081;-68
2023/09/13 08:23:01;;;;;;;3.90;1.40;;;;;;;;;;5037615;28;20021;-68
2023/09/13 08:25:27;;;;;;;3.92;1.10;;;;;;;;;;5037778;28;20331;-67
2023/09/13 08:27:53;;;;;;;3.38;1.30;;;;;;;;;;5038336;28;20075;-68
2023/09/13 08:30:19;;;;;;;5.80;1.38;;;;;;;;;;5037299;28;20379;-67
2023/09/13 08:32:45;;;;;;;3.20;1.10;;;;;;;;;;5036121;28;20034;-67
2023/09/13 08:35:11;;;;;;;3.75;1.40;;;;;;;;;;5036679;28;20030;-67
2023/09/13 08:37:37;;;;;;;4.00;1.55;;;;;;;;;;5037640;28;20077;-67
2023/09/13 08:40:04;;;;;;;2.88;1.25;;;;;;;;;;5035367;28;20574;-67
2023/09/13 08:42:30;;;;;;;2.83;1.55;;;;;;;;;;5037313;28;20053;-67
2023/09/13 08:44:57;;;;;;;2.95;1.08;;;;;;;;;;5036990;28;20029;-68
2023/09/13 08:47:26;;;;;;;2.13;1.30;;;;;;;;;;5034321;28;20109;-66
2023/09/13 08:49:52;;;;;;;5.90;1.50;;;;;;;;;;5036832;28;20087;-68
2023/09/13 08:52:19;;;;;;;3.50;1.20;;;;;;;;;;5036485;28;20395;-67
2023/09/13 08:54:46;;;;;;;2.83;1.60;;;;;;;;;;5037511;28;20041;-67
2023/09/13 08:57:12;;;;;;;7.10;1.58;;;;;;;;;;5036087;28;20037;-66
2023/09/13 08:59:38;;;;;;;6.03;1.92;;;;;;;;;;5036425;28;20026;-66
2023/09/13 09:02:05;;;;;;;3.38;1.50;;;;;;;;;;5036036;28;20017;-66
2023/09/13 09:04:31;;;;;;;3.30;1.38;;;;;;;;;;5036082;28;20375;-66
2023/09/13 09:06:57;;;;;;;3.42;1.55;;;;;;;;;;5035010;28;20034;-65
2023/09/13 09:09:28;;;;;;;3.97;1.55;;;;;;;;;;5037062;28;20117;-66
2023/09/13 09:11:57;;;;;;;4.38;1.58;;;;;;;;;;5036927;28;20596;-64
2023/09/13 09:14:23;;;;;;;6.63;1.60;;;;;;;;;;5036058;28;20036;-64
2023/09/13 09:16:50;;;;;;;4.65;1.83;;;;;;;;;;5036246;28;20086;-64
2023/09/13 09:19:16;;;;;;;2.35;1.40;;;;;;;;;;5035417;28;20052;-65
2023/09/13 09:21:42;;;;;;;4.43;1.80;;;;;;;;;;5036503;28;20026;-65
2023/09/13 09:24:08;;;;;;;3.00;1.30;;;;;;;;;;5036947;28;20032;-64
2023/09/13 09:26:34;;;;;;;3.03;1.50;;;;;;;;;;5037052;28;20061;-64
2023/09/13 09:29:10;;;;;;;4.68;1.60;;;;;;;;;;5036976;28;20136;-66
2023/09/13 09:31:37;;;;;;;4.18;1.50;;;;;;;;;;5036925;28;20474;-65
2023/09/13 09:34:04;;;;;;;2.83;1.50;;;;;;;;;;5036544;28;20367;-64
2023/09/13 09:36:36;;;;;;;2.78;1.48;;;;;;;;;;5037267;28;20087;-65
2023/09/13 09:39:03;;;;;;;6.38;1.92;;;;;;;;;;5037454;28;20057;-64
2023/09/13 09:41:33;;;;;;;1.23;1.10;;;;;;;;;;5036806;28;20104;-64
2023/09/13 09:43:59;;;;;;;2.72;1.55;;;;;;;;;;5036953;28;20029;-65
2023/09/13 09:46:25;;;;;;;2.72;1.25;;;;;;;;;;5036912;28;20060;-65
2023/09/13 09:48:52;;;;;;;4.15;1.50;;;;;;;;;;5036816;28;20032;-65
2023/09/13 09:51:19;;;;;;;3.90;1.40;;;;;;;;;;5036655;28;20018;-65
2023/09/13 09:53:45;;;;;;;4.35;1.60;;;;;;;;;;5038791;28;20029;-64
2023/09/13 09:56:12;;;;;;;3.20;1.63;;;;;;;;;;5036269;28;20045;-67
2023/09/13 09:58:38;;;;;;;3.33;1.63;;;;;;;;;;5036776;28;20021;-65
2023/09/13 10:01:04;;;;;;;4.60;1.70;;;;;;;;;;5036220;28;20018;-65
2023/09/13 10:03:33;;;;;;;6.07;1.85;;;;;;;;;;5036425;28;20386;-65
2023/09/13 10:06:06;;;;;;;4.40;1.73;;;;;;;;;;5036845;28;20417;-65
2023/09/13 10:08:50;;;;;;;2.95;1.40;;;;;;;;;;5034676;28;20021;-65
2023/09/13 10:11:23;;;;;;;3.35;1.70;;;;;;;;;;5029282;28;20367;-65
2023/09/13 10:13:48;;;;;;;;;;;;;;;;;;5038189;28;20056;-64
2023/09/13 10:16:15;;;;;;;3.95;1.70;;;;;;;;;;5039322;28;19909;-66
2023/09/13 10:18:46;;;;;;;2.90;1.25;;;;;;;;;;5039479;28;20528;-65
2023/09/13 10:21:14;;;;;;;4.72;1.52;;;;;;;;;;5040225;28;20029;-64
2023/09/13 10:23:41;;;;;;;4.13;1.55;;;;;;;;;;5040277;28;20505;-64
2023/09/13 10:26:11;;;;;;;2.13;1.30;;;;;;;;;;5039566;28;20033;-65
2023/09/13 10:28:42;;;;;;;2.80;1.30;;;;;;;;;;5040067;28;20151;-65
2023/09/13 10:31:18;;;;;;;3.78;1.50;;;;;;;;;;5039255;28;20079;-65
2023/09/13 10:33:45;;;;;;;2.47;1.27;;;;;;;;;;5037161;28;20037;-65
2023/09/13 10:36:26;;;;;;;2.63;1.10;;;;;;;;;;5040045;28;20478;-65
2023/09/13 10:39:01;;;;;;;1.63;1.15;;;;;;;;;;5039664;28;20025;-66
2023/09/13 10:41:30;;;;;;;1.63;0.85;;;;;;;;;;5038950;28;20026;-67
2023/09/13 10:43:57;;;;;;;2.75;0.90;;;;;;;;;;5040137;28;20378;-64
2023/09/13 10:46:24;;;;;;;3.00;1.00;;;;;;;;;;5039246;28;20030;-66
2023/09/13 10:48:50;;;;;;;2.20;1.20;;;;;;;;;;5038014;28;20081;-65
2023/09/13 10:51:17;;;;;;;3.40;1.45;;;;;;;;;;5039838;28;20053;-66
2023/09/13 10:53:45;;;;;;;1.90;1.00;;;;;;;;;;5041446;28;20029;-66
2023/09/13 10:56:12;;;;;;;3.22;1.30;;;;;;;;;;5039235;28;20057;-66
2023/09/13 10:58:39;;;;;;;1.75;1.10;;;;;;;;;;5039387;28;20387;-66
2023/09/13 11:01:05;;;;;;;2.40;1.35;;;;;;;;;;5037968;28;20021;-66
2023/09/13 11:03:32;;;;;;;2.20;1.10;;;;;;;;;;5038785;28;20087;-66
2023/09/13 11:05:58;;;;;;;1.70;1.20;;;;;;;;;;5039488;28;20104;-66
2023/09/13 11:08:27;;;;;;;1.80;1.08;;;;;;;;;;5039874;28;20036;-65
2023/09/13 11:10:53;;;;;;;1.70;1.00;;;;;;;;;;5039648;28;20056;-64
2023/09/13 11:13:19;;;;;;;3.72;1.13;;;;;;;;;;5039940;28;20409;-65
2023/09/13 11:15:49;;;;;;;2.75;1.10;;;;;;;;;;5038565;28;20168;-66
2023/09/13 11:18:16;;;;;;;1.45;0.80;;;;;;;;;;5039440;28;20030;-65
2023/09/13 11:20:42;;;;;;;1.48;0.80;;;;;;;;;;5039002;28;20033;-66
2023/09/13 11:23:15;;;;;;;2.85;1.00;;;;;;;;;;5039322;28;20075;-66
2023/09/13 11:25:41;;;;;;;;;;;;;;;;;;5038432;28;20080;-63
2023/09/13 11:28:08;;;;;;;1.85;0.93;;;;;;;;;;5037331;28;19905;-64
2023/09/13 11:30:50;;;;;;;1.98;0.73;;;;;;;;;;5038468;28;20022;-64
2023/09/13 11:33:16;;;;;;;2.97;1.00;;;;;;;;;;5038024;28;20033;-62
2023/09/13 11:35:45;;;;;;;2.03;0.90;;;;;;;;;;5039441;28;20109;-64
2023/09/13 11:38:12;;;;;;;2.65;1.00;;;;;;;;;;5038038;28;20033;-64
2023/09/13 11:40:38;;;;;;;2.33;1.30;;;;;;;;;;5039223;28;20025;-64
2023/09/13 11:43:04;;;;;;;1.08;0.75;;;;;;;;;;5039342;28;20048;-64
2023/09/13 11:45:31;;;;;;;2.38;0.90;;;;;;;;;;5039519;28;20073;-64
2023/09/13 11:47:57;;;;;;;1.88;0.80;;;;;;;;;;5039213;28;20056;-64
2023/09/13 11:50:23;;;;;;;2.00;1.10;;;;;;;;;;5037106;28;20030;-64
2023/09/13 11:53:13;;;;;;;1.70;0.77;;;;;;;;;;5040938;28;20055;-64
2023/09/13 11:55:39;;;;;;;3.28;0.85;;;;;;;;;;5038722;28;20421;-64
2023/09/13 11:58:06;;;;;;;1.00;0.60;;;;;;;;;;5039057;28;20032;-64
2023/09/13 12:00:40;;;;;;;1.15;0.80;;;;;;;;;;5039061;28;20022;-64
2023/09/13 12:03:06;;;;;;;2.10;0.95;;;;;;;;;;5039080;28;20108;-64
2023/09/13 12:05:33;;;;;;;2.05;0.68;;;;;;;;;;5039268;28;20064;-64
2023/09/13 12:08:00;;;;;;;1.83;1.00;;;;;;;;;;5039008;28;20036;-64
2023/09/13 12:10:35;;;;;;;1.73;0.75;;;;;;;;;;5038799;28;20115;-64
2023/09/13 12:13:01;;;;;;;1.95;0.90;;;;;;;;;;5039361;28;20033;-64
2023/09/13 12:15:29;;;;;;;1.80;1.00;;;;;;;;;;5039123;28;20021;-64
2023/09/13 12:18:01;;;;;;;1.80;0.90;;;;;;;;;;5039030;28;20048;-64
2023/09/13 12:20:31;;;;;;;1.55;0.90;;;;;;;;;;5038852;28;20140;-64
2023/09/13 12:22:57;;;;;;;2.50;0.65;;;;;;;;;;5038897;28;20037;-64
2023/09/13 12:25:25;;;;;;;5.15;0.82;;;;;;;;;;5038235;28;20017;-64
2023/09/13 12:27:51;;;;;;;2.95;0.80;;;;;;;;;;5038733;28;20071;-64
2023/09/13 12:30:17;;;;;;;1.60;0.82;;;;;;;;;;5038608;28;20463;-64
2023/09/13 12:32:44;;;;;;;1.23;0.60;;;;;;;;;;5037414;28;20072;-63
2023/09/13 12:35:10;;;;;;;1.33;0.75;;;;;;;;;;5037099;28;20026;-64
2023/09/13 12:37:36;;;;;;;3.25;1.20;;;;;;;;;;5037544;28;20029;-64
2023/09/13 12:40:13;;;;;;;2.08;0.70;;;;;;;;;;5037979;28;20076;-64
2023/09/13 12:42:39;;;;;;;3.00;1.10;;;;;;;;;;5038554;28;20160;-63
2023/09/13 12:45:06;;;;;;;2.50;1.13;;;;;;;;;;5038247;28;20027;-64
2023/09/13 12:47:32;;;;;;;2.35;1.17;;;;;;;;;;5038272;28;20052;-64
2023/09/13 12:49:58;;;;;;;1.33;0.70;;;;;;;;;;5037979;28;20029;-64
2023/09/13 12:52:26;;;;;;;3.13;1.10;;;;;;;;;;5039063;28;20036;-63
2023/09/13 12:54:52;;;;;;;1.67;0.95;;;;;;;;;;5038100;28;20454;-63
2023/09/13 12:57:18;;;;;;;1.83;0.80;;;;;;;;;;5037845;28;20080;-64
2023/09/13 12:59:45;;;;;;;3.28;1.00;;;;;;;;;;5038000;28;20474;-64
2023/09/13 13:02:14;;;;;;;1.08;0.73;;;;;;;;;;5038202;28;20029;-63
2023/09/13 13:04:44;;;;;;;1.35;0.95;;;;;;;;;;5037859;28;20025;-64
2023/09/13 13:07:10;;;;;;;1.67;0.80;;;;;;;;;;5037836;28;20026;-64
2023/09/13 13:09:36;;;;;;;1.92;0.80;;;;;;;;;;5037732;28;20394;-64
2023/09/13 13:12:02;;;;;;;1.05;0.70;;;;;;;;;;5037394;28;20026;-64
2023/09/13 13:14:31;;;;;;;3.47;0.85;;;;;;;;;;5037895;28;20155;-63
2023/09/13 13:16:58;;;;;;;1.92;0.80;;;;;;;;;;5037366;28;20029;-64
2023/09/13 13:19:32;;;;;;;2.45;0.80;;;;;;;;;;5037556;28;20232;-63
2023/09/13 13:21:58;;;;;;;2.30;0.90;;;;;;;;;;5037458;28;20051;-63
2023/09/13 13:24:25;;;;;;;2.90;0.80;;;;;;;;;;5037300;28;20081;-64
2023/09/13 13:26:51;;;;;;;2.15;0.98;;;;;;;;;;5036924;28;20104;-64
2023/09/13 13:29:17;;;;;;;1.25;0.77;;;;;;;;;;5037557;28;20036;-64
2023/09/13 13:31:43;;;;;;;2.38;0.80;;;;;;;;;;5037343;28;20052;-64
2023/09/13 13:34:09;;;;;;;2.92;1.00;;;;;;;;;;5037443;28;20448;-64
2023/09/13 13:36:35;;;;;;;2.08;0.93;;;;;;;;;;5037137;28;20056;-63
2023/09/13 13:39:05;;;;;;;2.15;1.00;;;;;;;;;;5037241;28;20026;-64
2023/09/13 13:41:31;;;;;;;1.67;0.90;;;;;;;;;;5036778;28;20078;-64
2023/09/13 13:43:59;;;;;;;2.15;0.77;;;;;;;;;;5037405;28;20104;-64
2023/09/13 13:46:25;;;;;;;1.65;0.80;;;;;;;;;;5037225;28;20028;-64
2023/09/13 13:48:53;;;;;;;2.22;0.70;;;;;;;;;;5036878;28;20025;-63
2023/09/13 13:51:19;;;;;;;1.83;0.90;;;;;;;;;;5037482;28;20028;-64
2023/09/13 13:53:45;;;;;;;0.73;0.68;;;;;;;;;;5039050;28;20040;-63
2023/09/13 13:56:11;;;;;;;1.42;0.60;;;;;;;;;;5036616;28;20494;-63
2023/09/13 13:58:39;;;;;;;1.83;0.80;;;;;;;;;;5035938;28;20107;-64
2023/09/13 14:01:05;;;;;;;1.95;0.70;;;;;;;;;;5037098;28;20055;-64
2023/09/13 14:03:31;;;;;;;1.73;0.60;;;;;;;;;;5037411;28;20048;-64
2023/09/13 14:05:57;;;;;;;2.15;0.65;;;;;;;;;;5035651;28;20036;-64
2023/09/13 14:08:24;;;;;;;1.15;0.60;;;;;;;;;;5037174;28;20390;-64
2023/09/13 14:10:52;;;;;;;1.27;0.50;;;;;;;;;;5036720;28;20036;-64
2023/09/13 14:13:19;;;;;;;1.23;0.68;;;;;;;;;;5035758;28;20021;-64
2023/09/13 14:15:45;;;;;;;1.10;0.80;;;;;;;;;;5036895;28;20037;-64
2023/09/13 14:18:12;;;;;;;1.35;0.60;;;;;;;;;;5036715;28;20017;-63
2023/09/13 14:20:41;;;;;;;1.17;0.77;;;;;;;;;;5035294;28;20398;-63
2023/09/13 14:23:08;;;;;;;2.85;0.95;;;;;;;;;;5037181;28;20504;-64
2023/09/13 14:25:34;;;;;;;2.17;0.80;;;;;;;;;;5036424;28;20106;-64
2023/09/13 14:28:00;;;;;;;1.63;0.70;;;;;;;;;;5037032;28;20045;-63
2023/09/13 14:30:26;;;;;;;1.30;0.63;;;;;;;;;;5036392;28;20021;-64
2023/09/13 14:32:52;;;;;;;3.88;0.70;;;;;;;;;;5036746;28;20063;-64
2023/09/13 14:35:18;;;;;;;0.75;0.52;;;;;;;;;;5036448;28;20033;-64
2023/09/13 14:37:44;;;;;;;1.85;0.70;;;;;;;;;;5035236;28;20025;-64
2023/09/13 14:40:10;;;;;;;2.00;0.90;;;;;;;;;;5034893;28;20482;-64
2023/09/13 14:42:36;;;;;;;1.20;0.73;;;;;;;;;;5036733;28;20075;-63